sensor_id;sensor_type;location;lat;lon;timestamp;P1;durP1;ratioP1;P2;durP2;ratioP2
7563;SDS011;3823;53.586;10.040;2023-09-12T04:02:51;39.03;;;29.55;;
7563;SDS011;3823;53.586;10.040;2023-09-12T04:05:17;43.10;;;28.45;;
7563;SDS011;3823;53.586;10.040;2023-09-12T04:07:43;41.60;;;28.65;;
7563;SDS011;3823;53.586;10.040;2023-09-12T04:10:08;39.55;;;29.63;;
7563;SDS011;3823;53.586;10.040;2023-09-12T04:12:34;40.70;;;27.83;;
7563;SDS011;3823;53.586;10.040;2023-09-12T04:14:59;44.63;;;29.90;;
7563;SDS011;3823;53.586;10.040;2023-09-12T04:17:25;42.90;;;30.42;;
7563;SDS011;3823;53.586;10.040;2023-09-12T04:19:50;44.47;;;29.10;;
7563;SDS011;3823;53.586;10.040;2023-09-12T04:22:16;39.28;;;28.65;;
7563;SDS011;3823;53.586;10.040;2023-09-12T04:24:41;39.17;;;30.08;;
7563;SDS011;3823;53.586;10.040;2023-09-12T04:27:07;43.05;;;28.23;;
7563;SDS011;3823;53.586;10.040;2023-09-12T04:29:33;42.10;;;28.77;;
7563;SDS011;3823;53.586;10.040;2023-09-12T04:32:00;44.97;;;31.45;;
7563;SDS011;3823;53.586;10.040;2023-09-12T04:34:26;41.65;;;30.38;;
7563;SDS011;3823;53.586;10.040;2023-09-12T04:36:52;46.20;;;29.63;;
7563;SDS011;3823;53.586;10.040;2023-09-12T04:39:18;40.92;;;30.15;;
7563;SDS011;3823;53.586;10.040;2023-09-12T04:41:44;40.65;;;30.33;;
7563;SDS011;3823;53.586;10.040;2023-09-12T04:44:10;45.47;;;32.15;;
7563;SDS011;3823;53.586;10.040;2023-09-12T04:46:36;50.10;;;31.23;;
7563;SDS011;3823;53.586;10.040;2023-09-12T04:49:02;39.05;;;30.00;;
7563;SDS011;3823;53.586;10.040;2023-09-12T04:51:28;42.88;;;29.35;;
7563;SDS011;3823;53.586;10.040;2023-09-12T04:53:53;43.45;;;28.58;;
7563;SDS011;3823;53.586;10.040;2023-09-12T04:56:19;47.00;;;31.23;;
7563;SDS011;3823;53.586;10.040;2023-09-12T04:58:45;43.42;;;30.17;;
7563;SDS011;3823;53.586;10.040;2023-09-12T05:01:11;50.00;;;31.63;;
7563;SDS011;3823;53.586;10.040;2023-09-12T05:03:36;53.90;;;31.60;;
7563;SDS011;3823;53.586;10.040;2023-09-12T05:06:02;47.97;;;32.80;;
7563;SDS011;3823;53.586;10.040;2023-09-12T05:08:28;44.00;;;30.15;;
7563;SDS011;3823;53.586;10.040;2023-09-12T05:10:55;47.67;;;32.30;;
7563;SDS011;3823;53.586;10.040;2023-09-12T05:13:21;49.15;;;33.67;;
7563;SDS011;3823;53.586;10.040;2023-09-12T05:15:46;48.50;;;33.50;;
7563;SDS011;3823;53.586;10.040;2023-09-12T05:18:12;47.95;;;34.15;;
7563;SDS011;3823;53.586;10.040;2023-09-12T05:20:37;52.15;;;33.28;;
7563;SDS011;3823;53.586;10.040;2023-09-12T05:23:03;46.30;;;33.95;;
7563;SDS011;3823;53.586;10.040;2023-09-12T05:25:28;47.08;;;32.60;;
7563;SDS011;3823;53.586;10.040;2023-09-12T05:27:55;53.25;;;34.58;;
7563;SDS011;3823;53.586;10.040;2023-09-12T05:30:20;52.90;;;31.58;;
7563;SDS011;3823;53.586;10.040;2023-09-12T05:32:46;53.88;;;34.25;;
7563;SDS011;3823;53.586;10.040;2023-09-12T05:35:11;51.75;;;34.42;;
7563;SDS011;3823;53.586;10.040;2023-09-12T05:37:37;51.55;;;33.92;;
7563;SDS011;3823;53.586;10.040;2023-09-12T05:40:02;60.58;;;31.85;;
7563;SDS011;3823;53.586;10.040;2023-09-12T05:42:29;51.22;;;32.45;;
7563;SDS011;3823;53.586;10.040;2023-09-12T05:44:54;55.78;;;35.55;;
7563;SDS011;3823;53.586;10.040;2023-09-12T05:47:21;53.42;;;36.15;;
7563;SDS011;3823;53.586;10.040;2023-09-12T05:49:47;53.03;;;35.88;;
7563;SDS011;3823;53.586;10.040;2023-09-12T05:52:12;50.92;;;34.90;;
7563;SDS011;3823;53.586;10.040;2023-09-12T05:54:39;51.78;;;34.33;;
7563;SDS011;3823;53.586;10.040;2023-09-12T05:57:06;52.70;;;34.67;;
7563;SDS011;3823;53.586;10.040;2023-09-12T05:59:32;46.30;;;32.65;;
7563;SDS011;3823;53.586;10.040;2023-09-12T06:01:59;50.33;;;33.15;;
7563;SDS011;3823;53.586;10.040;2023-09-12T06:04:24;53.05;;;33.83;;
7563;SDS011;3823;53.586;10.040;2023-09-12T06:06:50;52.20;;;33.40;;
7563;SDS011;3823;53.586;10.040;2023-09-12T06:09:15;48.35;;;32.28;;
7563;SDS011;3823;53.586;10.040;2023-09-12T06:11:41;44.95;;;32.88;;
7563;SDS011;3823;53.586;10.040;2023-09-12T06:14:06;45.72;;;33.22;;
7563;SDS011;3823;53.586;10.040;2023-09-12T06:16:32;47.22;;;32.42;;
7563;SDS011;3823;53.586;10.040;2023-09-12T06:18:57;49.30;;;33.67;;
7563;SDS011;3823;53.586;10.040;2023-09-12T06:21:23;48.90;;;31.92;;
7563;SDS011;3823;53.586;10.040;2023-09-12T06:23:55;50.25;;;31.70;;
7563;SDS011;3823;53.586;10.040;2023-09-12T06:26:36;47.65;;;32.40;;
7563;SDS011;3823;53.586;10.040;2023-09-12T06:29:02;47.03;;;31.90;;
7563;SDS011;3823;53.586;10.040;2023-09-12T06:31:28;44.92;;;32.20;;
7563;SDS011;3823;53.586;10.040;2023-09-12T06:33:54;51.55;;;33.03;;
7563;SDS011;3823;53.586;10.040;2023-09-12T06:36:19;46.78;;;34.08;;
7563;SDS011;3823;53.586;10.040;2023-09-12T06:38:45;52.83;;;33.38;;
7563;SDS011;3823;53.586;10.040;2023-09-12T06:41:10;47.13;;;31.55;;
7563;SDS011;3823;53.586;10.040;2023-09-12T06:43:36;54.30;;;31.63;;
7563;SDS011;3823;53.586;10.040;2023-09-12T06:46:01;52.22;;;31.70;;
7563;SDS011;3823;53.586;10.040;2023-09-12T06:48:27;45.00;;;31.27;;
7563;SDS011;3823;53.586;10.040;2023-09-12T06:50:54;48.25;;;32.38;;
7563;SDS011;3823;53.586;10.040;2023-09-12T06:53:19;50.40;;;34.60;;
7563;SDS011;3823;53.586;10.040;2023-09-12T06:55:45;46.35;;;31.80;;
7563;SDS011;3823;53.586;10.040;2023-09-12T06:58:10;47.15;;;32.33;;
7563;SDS011;3823;53.586;10.040;2023-09-12T07:00:37;46.42;;;30.88;;
7563;SDS011;3823;53.586;10.040;2023-09-12T07:03:02;48.13;;;32.67;;
7563;SDS011;3823;53.586;10.040;2023-09-12T07:05:28;46.72;;;31.17;;
7563;SDS011;3823;53.586;10.040;2023-09-12T07:07:54;49.92;;;30.83;;
7563;SDS011;3823;53.586;10.040;2023-09-12T07:10:19;47.65;;;30.55;;
7563;SDS011;3823;53.586;10.040;2023-09-12T07:12:45;43.80;;;30.35;;
7563;SDS011;3823;53.586;10.040;2023-09-12T07:15:11;44.50;;;29.80;;
7563;SDS011;3823;53.586;10.040;2023-09-12T07:17:36;47.00;;;31.27;;
7563;SDS011;3823;53.586;10.040;2023-09-12T07:20:02;46.15;;;30.65;;
7563;SDS011;3823;53.586;10.040;2023-09-12T07:22:27;47.83;;;30.02;;
7563;SDS011;3823;53.586;10.040;2023-09-12T07:24:53;42.40;;;30.00;;
7563;SDS011;3823;53.586;10.040;2023-09-12T07:27:19;42.97;;;31.58;;
7563;SDS011;3823;53.586;10.040;2023-09-12T07:29:44;45.63;;;30.92;;
7563;SDS011;3823;53.586;10.040;2023-09-12T07:32:10;42.88;;;30.25;;
7563;SDS011;3823;53.586;10.040;2023-09-12T07:34:35;43.13;;;29.33;;
7563;SDS011;3823;53.586;10.040;2023-09-12T07:37:02;47.58;;;29.08;;
7563;SDS011;3823;53.586;10.040;2023-09-12T07:39:28;45.80;;;32.28;;
7563;SDS011;3823;53.586;10.040;2023-09-12T07:41:54;48.42;;;29.38;;
7563;SDS011;3823;53.586;10.040;2023-09-12T07:44:20;43.25;;;29.60;;
7563;SDS011;3823;53.586;10.040;2023-09-12T07:46:46;41.20;;;30.98;;
7563;SDS011;3823;53.586;10.040;2023-09-12T07:49:11;39.58;;;27.83;;
7563;SDS011;3823;53.586;10.040;2023-09-12T07:51:37;41.22;;;28.42;;
7563;SDS011;3823;53.586;10.040;2023-09-12T07:54:02;35.53;;;27.35;;
7563;SDS011;3823;53.586;10.040;2023-09-12T07:56:28;41.38;;;28.70;;
7563;SDS011;3823;53.586;10.040;2023-09-12T07:58:54;30.55;;;24.40;;
7563;SDS011;3823;53.586;10.040;2023-09-12T08:01:20;40.00;;;27.35;;
7563;SDS011;3823;53.586;10.040;2023-09-12T08:03:46;38.40;;;27.85;;
7563;SDS011;3823;53.586;10.040;2023-09-12T08:06:12;36.28;;;26.67;;
7563;SDS011;3823;53.586;10.040;2023-09-12T08:08:38;38.50;;;27.50;;
7563;SDS011;3823;53.586;10.040;2023-09-12T08:11:03;36.53;;;27.65;;
7563;SDS011;3823;53.586;10.040;2023-09-12T08:13:29;36.55;;;27.58;;
7563;SDS011;3823;53.586;10.040;2023-09-12T08:15:56;43.13;;;30.65;;
7563;SDS011;3823;53.586;10.040;2023-09-12T08:18:26;37.15;;;27.38;;
7563;SDS011;3823;53.586;10.040;2023-09-12T08:20:54;37.78;;;26.92;;
7563;SDS011;3823;53.586;10.040;2023-09-12T08:23:19;36.55;;;26.40;;
7563;SDS011;3823;53.586;10.040;2023-09-12T08:25:45;39.80;;;27.17;;
7563;SDS011;3823;53.586;10.040;2023-09-12T08:28:10;41.28;;;25.92;;
7563;SDS011;3823;53.586;10.040;2023-09-12T08:30:36;33.20;;;27.58;;
7563;SDS011;3823;53.586;10.040;2023-09-12T08:33:02;38.17;;;27.88;;
7563;SDS011;3823;53.586;10.040;2023-09-12T08:35:28;33.65;;;26.45;;
7563;SDS011;3823;53.586;10.040;2023-09-12T08:37:54;33.13;;;25.67;;
7563;SDS011;3823;53.586;10.040;2023-09-12T08:40:20;36.08;;;26.23;;
7563;SDS011;3823;53.586;10.040;2023-09-12T08:42:45;32.40;;;25.85;;
7563;SDS011;3823;53.586;10.040;2023-09-12T08:45:13;31.30;;;24.00;;
7563;SDS011;3823;53.586;10.040;2023-09-12T08:47:40;34.65;;;25.17;;
7563;SDS011;3823;53.586;10.040;2023-09-12T08:50:10;38.20;;;25.15;;
7563;SDS011;3823;53.586;10.040;2023-09-12T08:52:38;34.40;;;23.83;;
7563;SDS011;3823;53.586;10.040;2023-09-12T08:55:04;34.95;;;25.00;;
7563;SDS011;3823;53.586;10.040;2023-09-12T08:57:30;35.58;;;26.45;;
7563;SDS011;3823;53.586;10.040;2023-09-12T08:59:58;31.10;;;22.90;;
7563;SDS011;3823;53.586;10.040;2023-09-12T09:02:30;33.53;;;27.17;;
7563;SDS011;3823;53.586;10.040;2023-09-12T09:05:00;32.00;;;24.63;;
7563;SDS011;3823;53.586;10.040;2023-09-12T09:07:29;34.47;;;25.60;;
7563;SDS011;3823;53.586;10.040;2023-09-12T09:09:57;32.50;;;23.58;;
7563;SDS011;3823;53.586;10.040;2023-09-12T09:12:23;31.92;;;24.38;;
7563;SDS011;3823;53.586;10.040;2023-09-12T09:14:48;38.45;;;24.52;;
7563;SDS011;3823;53.586;10.040;2023-09-12T09:17:14;34.00;;;24.33;;
7563;SDS011;3823;53.586;10.040;2023-09-12T09:19:41;32.35;;;23.38;;
7563;SDS011;3823;53.586;10.040;2023-09-12T09:22:08;30.63;;;24.58;;
7563;SDS011;3823;53.586;10.040;2023-09-12T09:24:33;28.90;;;22.52;;
7563;SDS011;3823;53.586;10.040;2023-09-12T09:26:59;32.95;;;24.48;;
7563;SDS011;3823;53.586;10.040;2023-09-12T09:29:26;28.80;;;22.92;;
7563;SDS011;3823;53.586;10.040;2023-09-12T09:31:56;30.60;;;23.17;;
7563;SDS011;3823;53.586;10.040;2023-09-12T09:34:24;31.70;;;24.13;;
7563;SDS011;3823;53.586;10.040;2023-09-12T09:36:52;34.00;;;23.23;;
7563;SDS011;3823;53.586;10.040;2023-09-12T09:39:23;24.77;;;20.63;;
7563;SDS011;3823;53.586;10.040;2023-09-12T09:41:50;30.63;;;23.67;;
7563;SDS011;3823;53.586;10.040;2023-09-12T09:44:21;28.08;;;21.13;;
7563;SDS011;3823;53.586;10.040;2023-09-12T09:46:52;25.52;;;22.60;;
7563;SDS011;3823;53.586;10.040;2023-09-12T09:49:20;31.88;;;24.85;;
7563;SDS011;3823;53.586;10.040;2023-09-12T09:51:46;26.27;;;21.15;;
7563;SDS011;3823;53.586;10.040;2023-09-12T09:54:12;27.83;;;21.48;;
7563;SDS011;3823;53.586;10.040;2023-09-12T09:56:44;29.42;;;22.67;;
7563;SDS011;3823;53.586;10.040;2023-09-12T09:59:18;24.48;;;18.42;;
7563;SDS011;3823;53.586;10.040;2023-09-12T10:01:46;21.27;;;18.15;;
7563;SDS011;3823;53.586;10.040;2023-09-12T10:04:14;27.05;;;19.92;;
7563;SDS011;3823;53.586;10.040;2023-09-12T10:06:41;22.73;;;18.23;;
7563;SDS011;3823;53.586;10.040;2023-09-12T10:09:09;19.50;;;16.83;;
7563;SDS011;3823;53.586;10.040;2023-09-12T10:11:40;22.50;;;17.13;;
7563;SDS011;3823;53.586;10.040;2023-09-12T10:14:07;19.95;;;16.73;;
7563;SDS011;3823;53.586;10.040;2023-09-12T10:16:34;18.23;;;15.52;;
7563;SDS011;3823;53.586;10.040;2023-09-12T10:24:25;17.50;;;15.07;;
7563;SDS011;3823;53.586;10.040;2023-09-12T10:26:52;15.75;;;13.73;;
7563;SDS011;3823;53.586;10.040;2023-09-12T10:29:19;18.00;;;14.98;;
7563;SDS011;3823;53.586;10.040;2023-09-12T10:31:47;17.60;;;14.80;;
7563;SDS011;3823;53.586;10.040;2023-09-12T10:34:13;15.82;;;13.40;;
7563;SDS011;3823;53.586;10.040;2023-09-12T10:36:40;16.70;;;14.60;;
7563;SDS011;3823;53.586;10.040;2023-09-12T10:39:07;17.77;;;15.07;;
7563;SDS011;3823;53.586;10.040;2023-09-12T10:41:36;19.95;;;15.70;;
7563;SDS011;3823;53.586;10.040;2023-09-12T10:44:02;18.40;;;15.48;;
7563;SDS011;3823;53.586;10.040;2023-09-12T10:46:35;19.27;;;16.98;;
7563;SDS011;3823;53.586;10.040;2023-09-12T10:49:06;20.02;;;15.55;;
7563;SDS011;3823;53.586;10.040;2023-09-12T10:51:33;20.13;;;17.60;;
7563;SDS011;3823;53.586;10.040;2023-09-12T10:54:25;21.10;;;17.90;;
7563;SDS011;3823;53.586;10.040;2023-09-12T10:57:03;22.40;;;18.27;;
7563;SDS011;3823;53.586;10.040;2023-09-12T10:59:30;23.67;;;17.83;;
7563;SDS011;3823;53.586;10.040;2023-09-12T11:04:54;23.80;;;19.35;;
7563;SDS011;3823;53.586;10.040;2023-09-12T11:08:02;23.63;;;19.35;;
7563;SDS011;3823;53.586;10.040;2023-09-12T11:12:48;23.05;;;17.77;;
7563;SDS011;3823;53.586;10.040;2023-09-12T11:15:15;21.80;;;18.08;;
7563;SDS011;3823;53.586;10.040;2023-09-12T11:17:48;23.58;;;19.25;;
7563;SDS011;3823;53.586;10.040;2023-09-12T11:20:24;19.52;;;17.42;;
7563;SDS011;3823;53.586;10.040;2023-09-12T11:22:49;21.67;;;18.35;;
7563;SDS011;3823;53.586;10.040;2023-09-12T11:30:17;24.70;;;20.15;;
7563;SDS011;3823;53.586;10.040;2023-09-12T11:32:49;24.05;;;20.70;;
7563;SDS011;3823;53.586;10.040;2023-09-12T11:35:16;25.95;;;21.52;;
7563;SDS011;3823;53.586;10.040;2023-09-12T11:37:53;22.45;;;19.23;;
7563;SDS011;3823;53.586;10.040;2023-09-12T11:40:40;27.00;;;20.25;;
7563;SDS011;3823;53.586;10.040;2023-09-12T11:43:08;28.85;;;22.00;;
7563;SDS011;3823;53.586;10.040;2023-09-12T11:45:53;27.35;;;21.90;;
7563;SDS011;3823;53.586;10.040;2023-09-12T11:48:20;28.08;;;22.05;;
7563;SDS011;3823;53.586;10.040;2023-09-12T11:50:50;28.08;;;21.05;;
7563;SDS011;3823;53.586;10.040;2023-09-12T11:53:19;29.42;;;21.48;;
7563;SDS011;3823;53.586;10.040;2023-09-12T11:55:47;28.65;;;21.95;;
7563;SDS011;3823;53.586;10.040;2023-09-12T11:58:16;28.23;;;22.63;;
7563;SDS011;3823;53.586;10.040;2023-09-12T12:00:46;31.58;;;22.52;;
7563;SDS011;3823;53.586;10.040;2023-09-12T12:03:14;28.65;;;22.45;;
7563;SDS011;3823;53.586;10.040;2023-09-12T12:05:40;29.13;;;21.98;;
7563;SDS011;3823;53.586;10.040;2023-09-12T12:08:12;27.02;;;20.88;;
7563;SDS011;3823;53.586;10.040;2023-09-12T12:10:39;24.90;;;21.08;;
7563;SDS011;3823;53.586;10.040;2023-09-12T12:13:06;25.00;;;19.90;;
7563;SDS011;3823;53.586;10.040;2023-09-12T12:15:35;24.25;;;19.85;;
7563;SDS011;3823;53.586;10.040;2023-09-12T12:18:01;28.63;;;21.15;;
7563;SDS011;3823;53.586;10.040;2023-09-12T12:20:26;24.63;;;20.92;;
7563;SDS011;3823;53.586;10.040;2023-09-12T12:22:54;24.27;;;19.17;;
7563;SDS011;3823;53.586;10.040;2023-09-12T12:25:19;22.02;;;19.15;;
7563;SDS011;3823;53.586;10.040;2023-09-12T12:27:45;21.45;;;19.23;;
7563;SDS011;3823;53.586;10.040;2023-09-12T12:30:11;20.60;;;17.70;;
7563;SDS011;3823;53.586;10.040;2023-09-12T12:32:41;21.08;;;18.80;;
7563;SDS011;3823;53.586;10.040;2023-09-12T12:35:09;21.60;;;19.23;;
7563;SDS011;3823;53.586;10.040;2023-09-12T12:37:36;21.77;;;19.27;;
7563;SDS011;3823;53.586;10.040;2023-09-12T12:40:02;23.17;;;19.27;;
7563;SDS011;3823;53.586;10.040;2023-09-12T12:42:34;22.60;;;17.05;;
7563;SDS011;3823;53.586;10.040;2023-09-12T12:45:08;24.77;;;19.55;;
7563;SDS011;3823;53.586;10.040;2023-09-12T12:47:40;22.05;;;19.10;;
7563;SDS011;3823;53.586;10.040;2023-09-12T12:50:13;19.75;;;17.58;;
7563;SDS011;3823;53.586;10.040;2023-09-12T12:52:39;21.85;;;19.52;;
7563;SDS011;3823;53.586;10.040;2023-09-12T12:55:06;22.80;;;18.88;;
7563;SDS011;3823;53.586;10.040;2023-09-12T12:57:37;25.10;;;20.58;;
7563;SDS011;3823;53.586;10.040;2023-09-12T13:00:08;27.35;;;19.83;;
7563;SDS011;3823;53.586;10.040;2023-09-12T13:02:35;26.27;;;17.73;;
7563;SDS011;3823;53.586;10.040;2023-09-12T13:05:04;23.23;;;19.38;;
7563;SDS011;3823;53.586;10.040;2023-09-12T13:07:33;19.10;;;17.17;;
7563;SDS011;3823;53.586;10.040;2023-09-12T13:10:00;22.30;;;19.70;;
7563;SDS011;3823;53.586;10.040;2023-09-12T13:12:27;20.73;;;18.55;;
7563;SDS011;3823;53.586;10.040;2023-09-12T13:14:53;24.77;;;18.92;;
7563;SDS011;3823;53.586;10.040;2023-09-12T13:17:18;19.83;;;17.73;;
7563;SDS011;3823;53.586;10.040;2023-09-12T13:19:44;22.15;;;18.83;;
7563;SDS011;3823;53.586;10.040;2023-09-12T13:22:10;19.60;;;17.42;;
7563;SDS011;3823;53.586;10.040;2023-09-12T13:24:35;25.67;;;22.27;;
7563;SDS011;3823;53.586;10.040;2023-09-12T13:27:01;23.77;;;21.27;;
7563;SDS011;3823;53.586;10.040;2023-09-12T13:29:27;24.48;;;21.58;;
7563;SDS011;3823;53.586;10.040;2023-09-12T13:31:52;23.20;;;20.48;;
7563;SDS011;3823;53.586;10.040;2023-09-12T13:34:18;22.42;;;20.13;;
7563;SDS011;3823;53.586;10.040;2023-09-12T13:36:43;21.85;;;19.55;;
7563;SDS011;3823;53.586;10.040;2023-09-12T13:39:09;25.35;;;19.33;;
7563;SDS011;3823;53.586;10.040;2023-09-12T13:41:37;20.27;;;18.13;;
7563;SDS011;3823;53.586;10.040;2023-09-12T13:44:05;21.33;;;18.02;;
7563;SDS011;3823;53.586;10.040;2023-09-12T13:46:31;24.88;;;18.35;;
7563;SDS011;3823;53.586;10.040;2023-09-12T13:48:57;22.73;;;18.83;;
7563;SDS011;3823;53.586;10.040;2023-09-12T13:51:25;22.00;;;19.55;;
7563;SDS011;3823;53.586;10.040;2023-09-12T13:53:51;23.85;;;20.67;;
7563;SDS011;3823;53.586;10.040;2023-09-12T13:56:17;21.92;;;19.52;;
7563;SDS011;3823;53.586;10.040;2023-09-12T13:58:42;22.75;;;17.50;;
7563;SDS011;3823;53.586;10.040;2023-09-12T14:01:08;21.88;;;18.95;;
7563;SDS011;3823;53.586;10.040;2023-09-12T14:03:33;19.38;;;17.38;;
7563;SDS011;3823;53.586;10.040;2023-09-12T14:05:59;19.67;;;17.77;;
7563;SDS011;3823;53.586;10.040;2023-09-12T14:08:25;21.63;;;19.27;;
7563;SDS011;3823;53.586;10.040;2023-09-12T14:10:50;22.35;;;19.95;;
7563;SDS011;3823;53.586;10.040;2023-09-12T14:13:16;21.33;;;19.10;;
7563;SDS011;3823;53.586;10.040;2023-09-12T14:15:41;20.38;;;18.20;;
7563;SDS011;3823;53.586;10.040;2023-09-12T14:18:07;20.27;;;17.27;;
7563;SDS011;3823;53.586;10.040;2023-09-12T14:20:32;19.05;;;17.02;;
7563;SDS011;3823;53.586;10.040;2023-09-12T14:22:58;22.20;;;17.98;;
7563;SDS011;3823;53.586;10.040;2023-09-12T14:25:24;21.45;;;19.15;;
7563;SDS011;3823;53.586;10.040;2023-09-12T14:27:49;19.60;;;17.63;;
7563;SDS011;3823;53.586;10.040;2023-09-12T14:30:15;20.55;;;17.35;;
7563;SDS011;3823;53.586;10.040;2023-09-12T14:32:41;19.35;;;17.38;;
7563;SDS011;3823;53.586;10.040;2023-09-12T14:35:06;22.40;;;18.05;;
7563;SDS011;3823;53.586;10.040;2023-09-12T14:37:32;23.70;;;18.70;;
7563;SDS011;3823;53.586;10.040;2023-09-12T14:39:58;20.67;;;18.58;;
7563;SDS011;3823;53.586;10.040;2023-09-12T14:42:25;22.63;;;20.10;;
7563;SDS011;3823;53.586;10.040;2023-09-12T14:44:53;20.85;;;18.30;;
7563;SDS011;3823;53.586;10.040;2023-09-12T14:47:19;30.20;;;18.10;;
7563;SDS011;3823;53.586;10.040;2023-09-12T14:49:44;19.98;;;17.52;;
7563;SDS011;3823;53.586;10.040;2023-09-12T14:52:10;21.10;;;18.88;;
7563;SDS011;3823;53.586;10.040;2023-09-12T14:54:35;21.95;;;19.63;;
7563;SDS011;3823;53.586;10.040;2023-09-12T14:57:01;21.10;;;18.52;;
7563;SDS011;3823;53.586;10.040;2023-09-12T14:59:27;20.00;;;18.00;;
7563;SDS011;3823;53.586;10.040;2023-09-12T15:01:52;21.40;;;16.45;;
7563;SDS011;3823;53.586;10.040;2023-09-12T15:04:18;20.13;;;16.60;;
7563;SDS011;3823;53.586;10.040;2023-09-12T15:06:43;19.48;;;17.45;;
7563;SDS011;3823;53.586;10.040;2023-09-12T15:09:09;18.05;;;16.23;;
7563;SDS011;3823;53.586;10.040;2023-09-12T15:11:34;21.08;;;17.25;;
7563;SDS011;3823;53.586;10.040;2023-09-12T15:14:00;18.75;;;16.80;;
7563;SDS011;3823;53.586;10.040;2023-09-12T15:16:26;20.30;;;18.15;;
7563;SDS011;3823;53.586;10.040;2023-09-12T15:18:52;21.92;;;17.02;;
7563;SDS011;3823;53.586;10.040;2023-09-12T15:21:18;18.33;;;16.45;;
7563;SDS011;3823;53.586;10.040;2023-09-12T15:23:44;24.98;;;16.83;;
7563;SDS011;3823;53.586;10.040;2023-09-12T15:26:10;19.15;;;17.00;;
7563;SDS011;3823;53.586;10.040;2023-09-12T15:28:35;18.52;;;16.60;;
7563;SDS011;3823;53.586;10.040;2023-09-12T15:31:01;20.05;;;18.05;;
7563;SDS011;3823;53.586;10.040;2023-09-12T15:33:28;18.90;;;17.02;;
7563;SDS011;3823;53.586;10.040;2023-09-12T15:35:54;17.67;;;15.77;;
7563;SDS011;3823;53.586;10.040;2023-09-12T15:38:20;19.65;;;17.55;;
7563;SDS011;3823;53.586;10.040;2023-09-12T15:40:46;18.27;;;16.40;;
7563;SDS011;3823;53.586;10.040;2023-09-12T15:43:11;17.52;;;15.82;;
7563;SDS011;3823;53.586;10.040;2023-09-12T15:45:37;19.08;;;17.10;;
7563;SDS011;3823;53.586;10.040;2023-09-12T15:48:03;19.10;;;17.20;;
7563;SDS011;3823;53.586;10.040;2023-09-12T15:50:28;16.90;;;15.20;;
7563;SDS011;3823;53.586;10.040;2023-09-12T15:52:54;18.05;;;16.25;;
7563;SDS011;3823;53.586;10.040;2023-09-12T15:55:19;21.13;;;15.55;;
7563;SDS011;3823;53.586;10.040;2023-09-12T15:57:45;16.88;;;15.07;;
7563;SDS011;3823;53.586;10.040;2023-09-12T16:00:11;18.73;;;15.95;;
7563;SDS011;3823;53.586;10.040;2023-09-12T16:02:38;15.68;;;14.07;;
7563;SDS011;3823;53.586;10.040;2023-09-12T16:05:04;17.20;;;15.27;;
7563;SDS011;3823;53.586;10.040;2023-09-12T16:07:30;13.13;;;11.98;;
7563;SDS011;3823;53.586;10.040;2023-09-12T16:09:55;16.13;;;13.75;;
7563;SDS011;3823;53.586;10.040;2023-09-12T16:12:21;14.35;;;12.90;;
7563;SDS011;3823;53.586;10.040;2023-09-12T16:14:47;15.60;;;14.20;;
7563;SDS011;3823;53.586;10.040;2023-09-12T16:17:12;15.13;;;13.68;;
7563;SDS011;3823;53.586;10.040;2023-09-12T16:19:38;15.70;;;14.07;;
7563;SDS011;3823;53.586;10.040;2023-09-12T16:22:03;15.95;;;14.23;;
7563;SDS011;3823;53.586;10.040;2023-09-12T16:24:34;16.63;;;14.80;;
7563;SDS011;3823;53.586;10.040;2023-09-12T16:26:59;14.85;;;13.20;;
7563;SDS011;3823;53.586;10.040;2023-09-12T16:29:25;15.65;;;14.15;;
7563;SDS011;3823;53.586;10.040;2023-09-12T16:31:51;14.93;;;13.52;;
7563;SDS011;3823;53.586;10.040;2023-09-12T16:34:17;16.33;;;14.73;;
7563;SDS011;3823;53.586;10.040;2023-09-12T16:36:43;16.15;;;14.57;;
7563;SDS011;3823;53.586;10.040;2023-09-12T16:39:08;17.08;;;15.32;;
7563;SDS011;3823;53.586;10.040;2023-09-12T16:41:34;16.67;;;14.75;;
7563;SDS011;3823;53.586;10.040;2023-09-12T16:44:00;16.60;;;15.10;;
7563;SDS011;3823;53.586;10.040;2023-09-12T16:46:25;18.85;;;16.85;;
7563;SDS011;3823;53.586;10.040;2023-09-12T16:48:51;16.50;;;14.82;;
7563;SDS011;3823;53.586;10.040;2023-09-12T16:51:16;16.67;;;15.07;;
7563;SDS011;3823;53.586;10.040;2023-09-12T16:53:42;17.98;;;15.68;;
7563;SDS011;3823;53.586;10.040;2023-09-12T16:56:07;17.02;;;15.35;;
7563;SDS011;3823;53.586;10.040;2023-09-12T16:58:33;16.45;;;14.68;;
7563;SDS011;3823;53.586;10.040;2023-09-12T17:00:58;17.17;;;15.32;;
7563;SDS011;3823;53.586;10.040;2023-09-12T17:03:24;16.48;;;14.63;;
7563;SDS011;3823;53.586;10.040;2023-09-12T17:05:49;16.75;;;15.15;;
7563;SDS011;3823;53.586;10.040;2023-09-12T17:08:15;15.80;;;14.15;;
7563;SDS011;3823;53.586;10.040;2023-09-12T17:10:41;17.40;;;15.60;;
7563;SDS011;3823;53.586;10.040;2023-09-12T17:13:07;16.25;;;14.70;;
7563;SDS011;3823;53.586;10.040;2023-09-12T17:15:32;19.90;;;15.35;;
7563;SDS011;3823;53.586;10.040;2023-09-12T17:18:02;16.00;;;14.40;;
7563;SDS011;3823;53.586;10.040;2023-09-12T17:20:30;16.45;;;14.75;;
7563;SDS011;3823;53.586;10.040;2023-09-12T17:22:55;16.67;;;13.75;;
7563;SDS011;3823;53.586;10.040;2023-09-12T17:25:21;15.70;;;14.10;;
7563;SDS011;3823;53.586;10.040;2023-09-12T17:27:46;19.40;;;15.63;;
7563;SDS011;3823;53.586;10.040;2023-09-12T17:30:13;15.95;;;14.38;;
7563;SDS011;3823;53.586;10.040;2023-09-12T17:32:39;15.23;;;13.70;;
7563;SDS011;3823;53.586;10.040;2023-09-12T17:35:05;16.33;;;14.57;;
7563;SDS011;3823;53.586;10.040;2023-09-12T17:37:32;17.27;;;15.45;;
7563;SDS011;3823;53.586;10.040;2023-09-12T17:39:58;15.38;;;13.98;;
7563;SDS011;3823;53.586;10.040;2023-09-12T17:42:24;15.20;;;13.60;;
7563;SDS011;3823;53.586;10.040;2023-09-12T17:44:51;16.40;;;14.70;;
7563;SDS011;3823;53.586;10.040;2023-09-12T17:47:16;16.08;;;14.40;;
7563;SDS011;3823;53.586;10.040;2023-09-12T17:49:44;18.15;;;16.38;;
7563;SDS011;3823;53.586;10.040;2023-09-12T17:52:10;16.00;;;14.23;;
7563;SDS011;3823;53.586;10.040;2023-09-12T17:54:36;15.73;;;13.90;;
7563;SDS011;3823;53.586;10.040;2023-09-12T17:57:01;15.80;;;14.23;;
7563;SDS011;3823;53.586;10.040;2023-09-12T17:59:27;17.17;;;15.45;;
7563;SDS011;3823;53.586;10.040;2023-09-12T18:01:52;16.33;;;14.15;;
7563;SDS011;3823;53.586;10.040;2023-09-12T18:04:18;17.30;;;14.98;;
7563;SDS011;3823;53.586;10.040;2023-09-12T18:06:44;21.27;;;19.08;;
7563;SDS011;3823;53.586;10.040;2023-09-12T18:09:10;20.33;;;18.13;;
7563;SDS011;3823;53.586;10.040;2023-09-12T18:11:35;19.00;;;15.15;;
7563;SDS011;3823;53.586;10.040;2023-09-12T18:14:01;17.77;;;16.13;;
7563;SDS011;3823;53.586;10.040;2023-09-12T18:16:27;17.50;;;15.70;;
7563;SDS011;3823;53.586;10.040;2023-09-12T18:18:52;20.00;;;16.90;;
7563;SDS011;3823;53.586;10.040;2023-09-12T18:21:18;19.15;;;17.15;;
7563;SDS011;3823;53.586;10.040;2023-09-12T18:23:43;20.13;;;17.63;;
7563;SDS011;3823;53.586;10.040;2023-09-12T18:26:12;17.98;;;16.13;;
7563;SDS011;3823;53.586;10.040;2023-09-12T18:28:45;17.98;;;16.17;;
7563;SDS011;3823;53.586;10.040;2023-09-12T18:31:14;18.92;;;17.10;;
7563;SDS011;3823;53.586;10.040;2023-09-12T18:33:41;20.67;;;18.58;;
7563;SDS011;3823;53.586;10.040;2023-09-12T18:36:08;19.60;;;16.77;;
7563;SDS011;3823;53.586;10.040;2023-09-12T18:38:36;19.75;;;17.48;;
7563;SDS011;3823;53.586;10.040;2023-09-12T18:41:02;21.15;;;18.33;;
7563;SDS011;3823;53.586;10.040;2023-09-12T18:43:28;18.92;;;17.02;;
7563;SDS011;3823;53.586;10.040;2023-09-12T18:45:54;22.25;;;17.38;;
7563;SDS011;3823;53.586;10.040;2023-09-12T18:48:20;22.90;;;18.17;;